sensor_id;sensor_type;location;lat;lon;timestamp;P1;durP1;ratioP1;P2;durP2;ratioP2
28862;SDS011;15994;51.796;13.006;2023-11-19T00:02:21;7.53;;;5.05;;
28862;SDS011;15994;51.796;13.006;2023-11-19T00:04:48;8.45;;;5.55;;
28862;SDS011;15994;51.796;13.006;2023-11-19T00:07:15;7.38;;;5.15;;
28862;SDS011;15994;51.796;13.006;2023-11-19T00:09:42;10.43;;;5.15;;
28862;SDS011;15994;51.796;13.006;2023-11-19T00:12:09;7.30;;;5.30;;
28862;SDS011;15994;51.796;13.006;2023-11-19T00:14:38;7.68;;;5.22;;
28862;SDS011;15994;51.796;13.006;2023-11-19T00:17:05;8.05;;;5.10;;
28862;SDS011;15994;51.796;13.006;2023-11-19T00:19:32;7.80;;;5.28;;
28862;SDS011;15994;51.796;13.006;2023-11-19T00:21:59;7.20;;;4.93;;
28862;SDS011;15994;51.796;13.006;2023-11-19T00:24:28;7.20;;;4.68;;
28862;SDS011;15994;51.796;13.006;2023-11-19T00:26:55;7.40;;;5.22;;
28862;SDS011;15994;51.796;13.006;2023-11-19T00:29:22;7.75;;;4.55;;
28862;SDS011;15994;51.796;13.006;2023-11-19T00:31:49;8.23;;;5.35;;
28862;SDS011;15994;51.796;13.006;2023-11-19T00:34:17;7.55;;;5.00;;
28862;SDS011;15994;51.796;13.006;2023-11-19T00:36:46;7.70;;;5.47;;
28862;SDS011;15994;51.796;13.006;2023-11-19T00:39:13;9.80;;;5.68;;
28862;SDS011;15994;51.796;13.006;2023-11-19T00:41:41;12.70;;;7.30;;
28862;SDS011;15994;51.796;13.006;2023-11-19T00:44:08;10.73;;;6.75;;
28862;SDS011;15994;51.796;13.006;2023-11-19T00:46:35;10.68;;;6.03;;
28862;SDS011;15994;51.796;13.006;2023-11-19T00:49:02;12.25;;;7.53;;
28862;SDS011;15994;51.796;13.006;2023-11-19T00:51:29;11.55;;;6.90;;
28862;SDS011;15994;51.796;13.006;2023-11-19T00:53:57;10.88;;;7.43;;
28862;SDS011;15994;51.796;13.006;2023-11-19T00:56:25;9.20;;;5.70;;
28862;SDS011;15994;51.796;13.006;2023-11-19T00:58:53;9.63;;;6.82;;
28862;SDS011;15994;51.796;13.006;2023-11-19T01:01:20;11.07;;;6.72;;
28862;SDS011;15994;51.796;13.006;2023-11-19T01:03:48;8.68;;;6.00;;
28862;SDS011;15994;51.796;13.006;2023-11-19T01:06:15;8.68;;;5.88;;
28862;SDS011;15994;51.796;13.006;2023-11-19T01:08:42;8.60;;;5.97;;
28862;SDS011;15994;51.796;13.006;2023-11-19T01:11:19;8.52;;;5.88;;
28862;SDS011;15994;51.796;13.006;2023-11-19T01:13:47;8.70;;;6.22;;
28862;SDS011;15994;51.796;13.006;2023-11-19T01:16:14;7.63;;;6.10;;
28862;SDS011;15994;51.796;13.006;2023-11-19T01:18:41;8.93;;;6.07;;
28862;SDS011;15994;51.796;13.006;2023-11-19T01:21:08;8.13;;;5.75;;
28862;SDS011;15994;51.796;13.006;2023-11-19T01:23:35;8.32;;;5.78;;
28862;SDS011;15994;51.796;13.006;2023-11-19T01:26:03;8.40;;;5.97;;
28862;SDS011;15994;51.796;13.006;2023-11-19T01:28:30;8.18;;;5.45;;
28862;SDS011;15994;51.796;13.006;2023-11-19T01:30:57;8.13;;;5.30;;
28862;SDS011;15994;51.796;13.006;2023-11-19T01:33:24;9.02;;;6.00;;
28862;SDS011;15994;51.796;13.006;2023-11-19T01:35:51;7.03;;;5.05;;
28862;SDS011;15994;51.796;13.006;2023-11-19T01:38:18;7.32;;;5.75;;
28862;SDS011;15994;51.796;13.006;2023-11-19T01:40:45;8.18;;;5.22;;
28862;SDS011;15994;51.796;13.006;2023-11-19T01:43:30;8.93;;;6.10;;
28862;SDS011;15994;51.796;13.006;2023-11-19T01:45:58;8.57;;;5.37;;
28862;SDS011;15994;51.796;13.006;2023-11-19T01:48:25;6.97;;;5.07;;
28862;SDS011;15994;51.796;13.006;2023-11-19T01:50:52;8.10;;;4.82;;
28862;SDS011;15994;51.796;13.006;2023-11-19T01:53:19;6.60;;;4.85;;
28862;SDS011;15994;51.796;13.006;2023-11-19T01:55:46;6.15;;;4.30;;
28862;SDS011;15994;51.796;13.006;2023-11-19T01:58:14;6.18;;;4.40;;
28862;SDS011;15994;51.796;13.006;2023-11-19T02:00:42;6.47;;;4.70;;
28862;SDS011;15994;51.796;13.006;2023-11-19T02:03:11;7.05;;;5.00;;
28862;SDS011;15994;51.796;13.006;2023-11-19T02:05:38;5.75;;;4.28;;
28862;SDS011;15994;51.796;13.006;2023-11-19T02:08:06;7.63;;;4.60;;
28862;SDS011;15994;51.796;13.006;2023-11-19T02:10:33;6.30;;;4.82;;
28862;SDS011;15994;51.796;13.006;2023-11-19T02:13:01;5.60;;;4.05;;
28862;SDS011;15994;51.796;13.006;2023-11-19T02:15:30;7.10;;;4.50;;
28862;SDS011;15994;51.796;13.006;2023-11-19T02:18:10;5.72;;;4.20;;
28862;SDS011;15994;51.796;13.006;2023-11-19T02:20:43;7.57;;;4.90;;
28862;SDS011;15994;51.796;13.006;2023-11-19T02:23:11;6.68;;;4.95;;
28862;SDS011;15994;51.796;13.006;2023-11-19T02:25:38;6.45;;;4.80;;
28862;SDS011;15994;51.796;13.006;2023-11-19T02:28:05;5.97;;;4.63;;
28862;SDS011;15994;51.796;13.006;2023-11-19T02:30:32;6.88;;;4.50;;
28862;SDS011;15994;51.796;13.006;2023-11-19T02:32:59;7.80;;;4.68;;
28862;SDS011;15994;51.796;13.006;2023-11-19T02:35:31;6.75;;;4.78;;
28862;SDS011;15994;51.796;13.006;2023-11-19T02:37:59;5.13;;;4.20;;
28862;SDS011;15994;51.796;13.006;2023-11-19T02:40:28;5.97;;;4.40;;
28862;SDS011;15994;51.796;13.006;2023-11-19T02:42:55;7.65;;;4.43;;
28862;SDS011;15994;51.796;13.006;2023-11-19T02:45:23;6.63;;;4.22;;
28862;SDS011;15994;51.796;13.006;2023-11-19T02:47:50;6.32;;;4.30;;
28862;SDS011;15994;51.796;13.006;2023-11-19T02:50:18;5.65;;;3.83;;
28862;SDS011;15994;51.796;13.006;2023-11-19T02:52:50;5.28;;;4.10;;
28862;SDS011;15994;51.796;13.006;2023-11-19T02:55:17;7.82;;;4.57;;
28862;SDS011;15994;51.796;13.006;2023-11-19T02:57:44;6.50;;;3.97;;
28862;SDS011;15994;51.796;13.006;2023-11-19T03:00:22;6.40;;;3.88;;
28862;SDS011;15994;51.796;13.006;2023-11-19T03:02:52;5.90;;;4.43;;
28862;SDS011;15994;51.796;13.006;2023-11-19T03:05:25;7.70;;;4.45;;
28862;SDS011;15994;51.796;13.006;2023-11-19T03:07:54;6.32;;;4.25;;
28862;SDS011;15994;51.796;13.006;2023-11-19T03:10:21;6.55;;;4.00;;
28862;SDS011;15994;51.796;13.006;2023-11-19T03:12:49;5.38;;;3.83;;
28862;SDS011;15994;51.796;13.006;2023-11-19T03:15:16;5.50;;;4.18;;
28862;SDS011;15994;51.796;13.006;2023-11-19T03:17:43;6.40;;;4.45;;
28862;SDS011;15994;51.796;13.006;2023-11-19T03:20:10;6.25;;;4.22;;
28862;SDS011;15994;51.796;13.006;2023-11-19T03:22:40;6.28;;;4.47;;
28862;SDS011;15994;51.796;13.006;2023-11-19T03:25:08;6.15;;;4.65;;
28862;SDS011;15994;51.796;13.006;2023-11-19T03:27:36;7.60;;;4.47;;
28862;SDS011;15994;51.796;13.006;2023-11-19T03:30:03;6.15;;;4.20;;
28862;SDS011;15994;51.796;13.006;2023-11-19T03:32:31;6.50;;;4.43;;
28862;SDS011;15994;51.796;13.006;2023-11-19T03:35:00;16.90;;;6.25;;
28862;SDS011;15994;51.796;13.006;2023-11-19T03:37:29;7.55;;;4.75;;
28862;SDS011;15994;51.796;13.006;2023-11-19T03:39:57;6.38;;;4.50;;
28862;SDS011;15994;51.796;13.006;2023-11-19T03:42:27;7.82;;;4.90;;
28862;SDS011;15994;51.796;13.006;2023-11-19T03:44:55;7.07;;;4.70;;
28862;SDS011;15994;51.796;13.006;2023-11-19T03:47:22;7.60;;;5.50;;
28862;SDS011;15994;51.796;13.006;2023-11-19T03:49:50;7.07;;;5.38;;
28862;SDS011;15994;51.796;13.006;2023-11-19T03:52:17;7.68;;;5.22;;
28862;SDS011;15994;51.796;13.006;2023-11-19T03:54:45;7.03;;;5.15;;
28862;SDS011;15994;51.796;13.006;2023-11-19T03:57:12;6.93;;;4.78;;
28862;SDS011;15994;51.796;13.006;2023-11-19T03:59:40;7.82;;;5.63;;
28862;SDS011;15994;51.796;13.006;2023-11-19T04:02:07;7.75;;;5.38;;
28862;SDS011;15994;51.796;13.006;2023-11-19T04:04:35;6.78;;;5.20;;
28862;SDS011;15994;51.796;13.006;2023-11-19T04:07:02;8.38;;;5.82;;
28862;SDS011;15994;51.796;13.006;2023-11-19T04:09:29;6.95;;;5.40;;
28862;SDS011;15994;51.796;13.006;2023-11-19T04:11:57;7.80;;;5.78;;
28862;SDS011;15994;51.796;13.006;2023-11-19T04:14:25;8.63;;;5.50;;
28862;SDS011;15994;51.796;13.006;2023-11-19T04:16:52;9.38;;;5.55;;
28862;SDS011;15994;51.796;13.006;2023-11-19T04:19:19;7.78;;;5.88;;
28862;SDS011;15994;51.796;13.006;2023-11-19T04:21:46;7.53;;;5.47;;
28862;SDS011;15994;51.796;13.006;2023-11-19T04:24:14;7.10;;;5.50;;
28862;SDS011;15994;51.796;13.006;2023-11-19T04:26:41;7.70;;;5.28;;
28862;SDS011;15994;51.796;13.006;2023-11-19T04:29:10;7.15;;;5.15;;
28862;SDS011;15994;51.796;13.006;2023-11-19T04:31:38;6.97;;;4.95;;
28862;SDS011;15994;51.796;13.006;2023-11-19T04:34:05;6.55;;;4.80;;
28862;SDS011;15994;51.796;13.006;2023-11-19T04:36:33;6.00;;;4.72;;
28862;SDS011;15994;51.796;13.006;2023-11-19T04:39:00;6.22;;;4.53;;
28862;SDS011;15994;51.796;13.006;2023-11-19T04:41:27;6.18;;;4.50;;
28862;SDS011;15994;51.796;13.006;2023-11-19T04:43:55;5.82;;;4.45;;
28862;SDS011;15994;51.796;13.006;2023-11-19T04:46:22;6.10;;;4.38;;
28862;SDS011;15994;51.796;13.006;2023-11-19T04:48:49;6.30;;;4.50;;
28862;SDS011;15994;51.796;13.006;2023-11-19T04:51:16;6.05;;;4.50;;
28862;SDS011;15994;51.796;13.006;2023-11-19T04:53:43;10.65;;;5.10;;
28862;SDS011;15994;51.796;13.006;2023-11-19T04:56:10;5.43;;;3.80;;
28862;SDS011;15994;51.796;13.006;2023-11-19T04:58:38;5.75;;;3.88;;
28862;SDS011;15994;51.796;13.006;2023-11-19T05:01:05;5.18;;;3.85;;
28862;SDS011;15994;51.796;13.006;2023-11-19T05:03:32;4.88;;;3.65;;
28862;SDS011;15994;51.796;13.006;2023-11-19T05:06:01;5.20;;;3.47;;
28862;SDS011;15994;51.796;13.006;2023-11-19T05:08:28;5.18;;;3.40;;
28862;SDS011;15994;51.796;13.006;2023-11-19T05:10:55;3.97;;;2.90;;
28862;SDS011;15994;51.796;13.006;2023-11-19T05:13:30;3.45;;;2.85;;
28862;SDS011;15994;51.796;13.006;2023-11-19T05:15:58;3.90;;;2.65;;
28862;SDS011;15994;51.796;13.006;2023-11-19T05:18:25;3.00;;;2.20;;
28862;SDS011;15994;51.796;13.006;2023-11-19T05:20:52;2.80;;;2.10;;
28862;SDS011;15994;51.796;13.006;2023-11-19T05:23:19;2.85;;;2.00;;
28862;SDS011;15994;51.796;13.006;2023-11-19T05:25:46;3.42;;;2.20;;
28862;SDS011;15994;51.796;13.006;2023-11-19T05:28:13;3.05;;;1.92;;
28862;SDS011;15994;51.796;13.006;2023-11-19T05:30:40;3.45;;;1.88;;
28862;SDS011;15994;51.796;13.006;2023-11-19T05:33:07;2.97;;;2.00;;
28862;SDS011;15994;51.796;13.006;2023-11-19T05:35:34;2.60;;;2.10;;
28862;SDS011;15994;51.796;13.006;2023-11-19T05:38:01;2.50;;;2.00;;
28862;SDS011;15994;51.796;13.006;2023-11-19T05:40:28;2.63;;;1.80;;
28862;SDS011;15994;51.796;13.006;2023-11-19T05:42:55;2.40;;;1.80;;
28862;SDS011;15994;51.796;13.006;2023-11-19T05:45:22;2.10;;;1.40;;
28862;SDS011;15994;51.796;13.006;2023-11-19T05:47:49;2.33;;;1.75;;
28862;SDS011;15994;51.796;13.006;2023-11-19T05:50:17;4.30;;;1.98;;
28862;SDS011;15994;51.796;13.006;2023-11-19T05:52:44;2.55;;;1.80;;
28862;SDS011;15994;51.796;13.006;2023-11-19T05:55:11;2.35;;;1.70;;
28862;SDS011;15994;51.796;13.006;2023-11-19T05:57:39;2.40;;;1.60;;
28862;SDS011;15994;51.796;13.006;2023-11-19T06:00:06;3.60;;;1.48;;
28862;SDS011;15994;51.796;13.006;2023-11-19T06:02:35;3.83;;;1.50;;
28862;SDS011;15994;51.796;13.006;2023-11-19T06:05:03;2.40;;;1.08;;
28862;SDS011;15994;51.796;13.006;2023-11-19T06:07:34;2.80;;;1.27;;
28862;SDS011;15994;51.796;13.006;2023-11-19T06:10:02;1.77;;;1.17;;
28862;SDS011;15994;51.796;13.006;2023-11-19T06:12:30;3.33;;;1.52;;
28862;SDS011;15994;51.796;13.006;2023-11-19T06:14:58;3.53;;;1.20;;
28862;SDS011;15994;51.796;13.006;2023-11-19T06:17:25;1.85;;;1.30;;
28862;SDS011;15994;51.796;13.006;2023-11-19T06:19:52;2.25;;;1.25;;
28862;SDS011;15994;51.796;13.006;2023-11-19T06:22:19;1.98;;;1.30;;
28862;SDS011;15994;51.796;13.006;2023-11-19T06:24:46;3.92;;;1.30;;
28862;SDS011;15994;51.796;13.006;2023-11-19T06:27:13;2.00;;;1.20;;
28862;SDS011;15994;51.796;13.006;2023-11-19T06:29:41;3.97;;;1.38;;
28862;SDS011;15994;51.796;13.006;2023-11-19T06:32:08;3.33;;;1.30;;
28862;SDS011;15994;51.796;13.006;2023-11-19T06:34:35;1.80;;;1.30;;
28862;SDS011;15994;51.796;13.006;2023-11-19T06:37:02;1.65;;;1.27;;
28862;SDS011;15994;51.796;13.006;2023-11-19T06:39:30;1.58;;;1.10;;
28862;SDS011;15994;51.796;13.006;2023-11-19T06:41:57;3.33;;;1.25;;
28862;SDS011;15994;51.796;13.006;2023-11-19T06:44:24;3.58;;;1.10;;
28862;SDS011;15994;51.796;13.006;2023-11-19T06:46:51;2.03;;;1.15;;
28862;SDS011;15994;51.796;13.006;2023-11-19T06:49:18;2.83;;;1.00;;
28862;SDS011;15994;51.796;13.006;2023-11-19T06:51:45;2.13;;;1.23;;
28862;SDS011;15994;51.796;13.006;2023-11-19T06:54:12;1.95;;;1.02;;
28862;SDS011;15994;51.796;13.006;2023-11-19T06:56:39;1.40;;;0.98;;
28862;SDS011;15994;51.796;13.006;2023-11-19T06:59:06;1.13;;;0.80;;
28862;SDS011;15994;51.796;13.006;2023-11-19T07:01:34;1.63;;;1.00;;
28862;SDS011;15994;51.796;13.006;2023-11-19T07:04:02;1.88;;;0.90;;
28862;SDS011;15994;51.796;13.006;2023-11-19T07:06:33;2.03;;;1.23;;
28862;SDS011;15994;51.796;13.006;2023-11-19T07:09:00;5.22;;;1.00;;
28862;SDS011;15994;51.796;13.006;2023-11-19T07:11:34;3.13;;;0.82;;
28862;SDS011;15994;51.796;13.006;2023-11-19T07:14:01;2.22;;;0.90;;
28862;SDS011;15994;51.796;13.006;2023-11-19T07:16:28;1.45;;;1.00;;
28862;SDS011;15994;51.796;13.006;2023-11-19T07:18:55;1.25;;;0.80;;
28862;SDS011;15994;51.796;13.006;2023-11-19T07:21:24;0.98;;;0.70;;
28862;SDS011;15994;51.796;13.006;2023-11-19T07:23:52;1.35;;;0.90;;
28862;SDS011;15994;51.796;13.006;2023-11-19T07:26:19;2.47;;;0.70;;
28862;SDS011;15994;51.796;13.006;2023-11-19T07:28:46;1.55;;;0.60;;
28862;SDS011;15994;51.796;13.006;2023-11-19T07:31:13;2.67;;;0.70;;
28862;SDS011;15994;51.796;13.006;2023-11-19T07:33:41;0.88;;;0.52;;
28862;SDS011;15994;51.796;13.006;2023-11-19T07:36:09;1.33;;;0.60;;
28862;SDS011;15994;51.796;13.006;2023-11-19T07:38:36;1.63;;;0.40;;
28862;SDS011;15994;51.796;13.006;2023-11-19T07:41:07;0.98;;;0.45;;
28862;SDS011;15994;51.796;13.006;2023-11-19T07:43:38;4.25;;;0.60;;
28862;SDS011;15994;51.796;13.006;2023-11-19T07:46:10;2.58;;;0.50;;
28862;SDS011;15994;51.796;13.006;2023-11-19T07:48:37;0.85;;;0.40;;
28862;SDS011;15994;51.796;13.006;2023-11-19T07:51:05;0.70;;;0.40;;
28862;SDS011;15994;51.796;13.006;2023-11-19T07:53:32;2.45;;;0.50;;
28862;SDS011;15994;51.796;13.006;2023-11-19T07:55:59;1.23;;;0.50;;
28862;SDS011;15994;51.796;13.006;2023-11-19T07:58:26;0.52;;;0.30;;
28862;SDS011;15994;51.796;13.006;2023-11-19T08:00:53;0.90;;;0.43;;
28862;SDS011;15994;51.796;13.006;2023-11-19T08:03:20;2.20;;;0.50;;
28862;SDS011;15994;51.796;13.006;2023-11-19T08:05:48;1.50;;;0.60;;
28862;SDS011;15994;51.796;13.006;2023-11-19T08:08:15;0.68;;;0.47;;
28862;SDS011;15994;51.796;13.006;2023-11-19T08:10:42;0.80;;;0.60;;
28862;SDS011;15994;51.796;13.006;2023-11-19T08:13:11;0.80;;;0.50;;
28862;SDS011;15994;51.796;13.006;2023-11-19T08:15:38;1.05;;;0.32;;
28862;SDS011;15994;51.796;13.006;2023-11-19T08:18:06;1.63;;;0.43;;
28862;SDS011;15994;51.796;13.006;2023-11-19T08:20:34;1.75;;;0.60;;
28862;SDS011;15994;51.796;13.006;2023-11-19T08:23:02;0.55;;;0.50;;
28862;SDS011;15994;51.796;13.006;2023-11-19T08:25:30;0.77;;;0.55;;
28862;SDS011;15994;51.796;13.006;2023-11-19T08:27:58;0.95;;;0.60;;
28862;SDS011;15994;51.796;13.006;2023-11-19T08:30:25;0.75;;;0.60;;
28862;SDS011;15994;51.796;13.006;2023-11-19T08:32:53;1.20;;;0.70;;
28862;SDS011;15994;51.796;13.006;2023-11-19T08:35:20;2.70;;;0.60;;
28862;SDS011;15994;51.796;13.006;2023-11-19T08:37:47;1.00;;;0.50;;
28862;SDS011;15994;51.796;13.006;2023-11-19T08:40:14;2.50;;;0.70;;
28862;SDS011;15994;51.796;13.006;2023-11-19T08:42:41;1.63;;;0.77;;
28862;SDS011;15994;51.796;13.006;2023-11-19T08:45:08;1.73;;;0.73;;
28862;SDS011;15994;51.796;13.006;2023-11-19T08:47:36;1.38;;;0.70;;
28862;SDS011;15994;51.796;13.006;2023-11-19T08:50:05;1.55;;;0.60;;
28862;SDS011;15994;51.796;13.006;2023-11-19T08:52:33;1.55;;;0.77;;
28862;SDS011;15994;51.796;13.006;2023-11-19T08:55:00;1.27;;;0.52;;
28862;SDS011;15994;51.796;13.006;2023-11-19T08:57:27;0.60;;;0.50;;
28862;SDS011;15994;51.796;13.006;2023-11-19T08:59:55;2.33;;;0.57;;
28862;SDS011;15994;51.796;13.006;2023-11-19T09:02:22;1.45;;;0.60;;
28862;SDS011;15994;51.796;13.006;2023-11-19T09:04:49;1.65;;;0.70;;
28862;SDS011;15994;51.796;13.006;2023-11-19T09:07:16;1.10;;;0.60;;
28862;SDS011;15994;51.796;13.006;2023-11-19T09:09:43;2.20;;;0.63;;
28862;SDS011;15994;51.796;13.006;2023-11-19T09:12:10;1.48;;;0.70;;
28862;SDS011;15994;51.796;13.006;2023-11-19T09:14:38;1.85;;;0.70;;
28862;SDS011;15994;51.796;13.006;2023-11-19T09:17:06;2.03;;;0.60;;
28862;SDS011;15994;51.796;13.006;2023-11-19T09:19:34;2.08;;;0.60;;
28862;SDS011;15994;51.796;13.006;2023-11-19T09:22:01;1.20;;;0.43;;
28862;SDS011;15994;51.796;13.006;2023-11-19T09:24:28;2.78;;;0.70;;
28862;SDS011;15994;51.796;13.006;2023-11-19T09:26:56;3.03;;;0.90;;
28862;SDS011;15994;51.796;13.006;2023-11-19T09:29:23;1.95;;;0.70;;
28862;SDS011;15994;51.796;13.006;2023-11-19T09:31:50;2.42;;;0.77;;
28862;SDS011;15994;51.796;13.006;2023-11-19T09:34:17;3.33;;;0.80;;
28862;SDS011;15994;51.796;13.006;2023-11-19T09:36:45;3.53;;;0.90;;
28862;SDS011;15994;51.796;13.006;2023-11-19T09:39:12;4.80;;;1.10;;
28862;SDS011;15994;51.796;13.006;2023-11-19T09:41:42;4.15;;;1.00;;
28862;SDS011;15994;51.796;13.006;2023-11-19T09:44:10;3.08;;;0.80;;
28862;SDS011;15994;51.796;13.006;2023-11-19T09:46:38;4.72;;;1.02;;
28862;SDS011;15994;51.796;13.006;2023-11-19T09:49:05;6.72;;;1.10;;
28862;SDS011;15994;51.796;13.006;2023-11-19T09:51:33;5.82;;;1.13;;
28862;SDS011;15994;51.796;13.006;2023-11-19T09:54:01;4.65;;;1.13;;
28862;SDS011;15994;51.796;13.006;2023-11-19T09:56:28;6.57;;;1.23;;
28862;SDS011;15994;51.796;13.006;2023-11-19T09:58:56;5.63;;;1.08;;
28862;SDS011;15994;51.796;13.006;2023-11-19T10:01:23;3.55;;;1.10;;
28862;SDS011;15994;51.796;13.006;2023-11-19T10:03:51;3.67;;;1.08;;
28862;SDS011;15994;51.796;13.006;2023-11-19T10:06:20;3.17;;;0.80;;
28862;SDS011;15994;51.796;13.006;2023-11-19T10:08:47;4.32;;;0.73;;
28862;SDS011;15994;51.796;13.006;2023-11-19T10:11:14;5.28;;;1.00;;
28862;SDS011;15994;51.796;13.006;2023-11-19T10:13:41;5.90;;;1.10;;
28862;SDS011;15994;51.796;13.006;2023-11-19T10:16:09;6.32;;;1.10;;
28862;SDS011;15994;51.796;13.006;2023-11-19T10:18:37;6.05;;;1.38;;
28862;SDS011;15994;51.796;13.006;2023-11-19T10:21:05;9.95;;;1.23;;
28862;SDS011;15994;51.796;13.006;2023-11-19T10:23:48;6.13;;;1.02;;
28862;SDS011;15994;51.796;13.006;2023-11-19T10:26:16;8.40;;;1.08;;
28862;SDS011;15994;51.796;13.006;2023-11-19T10:28:43;5.07;;;1.00;;
28862;SDS011;15994;51.796;13.006;2023-11-19T10:31:11;6.13;;;1.25;;
28862;SDS011;15994;51.796;13.006;2023-11-19T10:33:39;7.75;;;1.40;;
28862;SDS011;15994;51.796;13.006;2023-11-19T10:36:06;7.28;;;1.70;;
28862;SDS011;15994;51.796;13.006;2023-11-19T10:38:33;9.63;;;1.98;;
28862;SDS011;15994;51.796;13.006;2023-11-19T10:41:00;6.00;;;1.73;;
28862;SDS011;15994;51.796;13.006;2023-11-19T10:43:27;7.25;;;1.67;;
28862;SDS011;15994;51.796;13.006;2023-11-19T10:45:54;9.82;;;1.92;;
28862;SDS011;15994;51.796;13.006;2023-11-19T10:48:35;8.98;;;1.83;;
28862;SDS011;15994;51.796;13.006;2023-11-19T10:51:02;6.35;;;1.70;;
28862;SDS011;15994;51.796;13.006;2023-11-19T10:53:32;8.40;;;1.70;;
28862;SDS011;15994;51.796;13.006;2023-11-19T10:56:00;6.25;;;1.52;;
28862;SDS011;15994;51.796;13.006;2023-11-19T10:58:28;9.15;;;1.77;;
28862;SDS011;15994;51.796;13.006;2023-11-19T11:00:59;9.75;;;1.70;;
28862;SDS011;15994;51.796;13.006;2023-11-19T11:03:29;7.20;;;1.80;;
28862;SDS011;15994;51.796;13.006;2023-11-19T11:05:58;8.85;;;2.03;;
28862;SDS011;15994;51.796;13.006;2023-11-19T11:08:25;8.43;;;1.80;;
28862;SDS011;15994;51.796;13.006;2023-11-19T11:10:54;6.82;;;1.52;;
28862;SDS011;15994;51.796;13.006;2023-11-19T11:13:22;7.32;;;1.85;;
28862;SDS011;15994;51.796;13.006;2023-11-19T11:15:50;10.77;;;2.13;;
28862;SDS011;15994;51.796;13.006;2023-11-19T11:18:19;6.55;;;1.70;;
28862;SDS011;15994;51.796;13.006;2023-11-19T11:20:47;9.48;;;1.67;;
28862;SDS011;15994;51.796;13.006;2023-11-19T11:28:19;6.28;;;1.40;;
28862;SDS011;15994;51.796;13.006;2023-11-19T11:33:33;8.07;;;1.45;;
28862;SDS011;15994;51.796;13.006;2023-11-19T11:38:35;9.13;;;1.90;;
28862;SDS011;15994;51.796;13.006;2023-11-19T11:41:16;8.15;;;1.52;;
28862;SDS011;15994;51.796;13.006;2023-11-19T11:43:45;10.15;;;2.10;;
28862;SDS011;15994;51.796;13.006;2023-11-19T11:46:58;14.27;;;2.70;;
28862;SDS011;15994;51.796;13.006;2023-11-19T11:49:00;15.32;;;2.17;;
28862;SDS011;15994;51.796;13.006;2023-11-19T11:54:10;13.32;;;2.40;;
28862;SDS011;15994;51.796;13.006;2023-11-19T11:56:37;12.80;;;2.28;;
28862;SDS011;15994;51.796;13.006;2023-11-19T11:59:07;13.93;;;2.88;;
28862;SDS011;15994;51.796;13.006;2023-11-19T12:01:35;11.88;;;2.75;;
28862;SDS011;15994;51.796;13.006;2023-11-19T12:04:02;11.63;;;3.00;;
28862;SDS011;15994;51.796;13.006;2023-11-19T12:06:32;11.98;;;2.83;;
28862;SDS011;15994;51.796;13.006;2023-11-19T12:08:59;16.52;;;3.25;;
28862;SDS011;15994;51.796;13.006;2023-11-19T12:11:26;13.93;;;2.80;;
28862;SDS011;15994;51.796;13.006;2023-11-19T12:13:57;15.00;;;2.80;;
28862;SDS011;15994;51.796;13.006;2023-11-19T12:16:27;11.88;;;2.60;;
28862;SDS011;15994;51.796;13.006;2023-11-19T12:18:55;12.82;;;2.50;;
28862;SDS011;15994;51.796;13.006;2023-11-19T12:21:29;9.77;;;2.55;;
28862;SDS011;15994;51.796;13.006;2023-11-19T12:23:57;12.65;;;2.15;;
28862;SDS011;15994;51.796;13.006;2023-11-19T12:26:35;13.07;;;2.60;;
28862;SDS011;15994;51.796;13.006;2023-11-19T12:29:02;15.80;;;2.70;;
28862;SDS011;15994;51.796;13.006;2023-11-19T12:31:32;11.98;;;2.35;;
28862;SDS011;15994;51.796;13.006;2023-11-19T12:34:06;11.27;;;2.08;;
28862;SDS011;15994;51.796;13.006;2023-11-19T12:36:36;8.82;;;2.08;;
28862;SDS011;15994;51.796;13.006;2023-11-19T12:39:03;12.25;;;2.53;;
28862;SDS011;15994;51.796;13.006;2023-11-19T12:41:30;8.38;;;1.95;;
28862;SDS011;15994;51.796;13.006;2023-11-19T12:44:09;9.85;;;2.05;;
28862;SDS011;15994;51.796;13.006;2023-11-19T12:46:37;12.38;;;2.42;;
28862;SDS011;15994;51.796;13.006;2023-11-19T12:49:04;11.80;;;2.10;;
28862;SDS011;15994;51.796;13.006;2023-11-19T12:51:31;10.65;;;2.00;;
28862;SDS011;15994;51.796;13.006;2023-11-19T12:53:58;9.63;;;2.85;;
28862;SDS011;15994;51.796;13.006;2023-11-19T12:56:25;10.25;;;2.30;;
28862;SDS011;15994;51.796;13.006;2023-11-19T12:58:52;10.82;;;2.70;;
28862;SDS011;15994;51.796;13.006;2023-11-19T13:01:20;11.40;;;2.13;;
28862;SDS011;15994;51.796;13.006;2023-11-19T13:03:47;11.23;;;2.65;;
28862;SDS011;15994;51.796;13.006;2023-11-19T13:06:16;11.73;;;2.35;;
28862;SDS011;15994;51.796;13.006;2023-11-19T13:08:46;14.85;;;2.75;;
28862;SDS011;15994;51.796;13.006;2023-11-19T13:11:29;12.40;;;2.45;;
28862;SDS011;15994;51.796;13.006;2023-11-19T13:13:57;12.70;;;2.92;;
28862;SDS011;15994;51.796;13.006;2023-11-19T13:16:25;17.77;;;2.80;;
28862;SDS011;15994;51.796;13.006;2023-11-19T13:18:53;13.98;;;2.70;;
28862;SDS011;15994;51.796;13.006;2023-11-19T13:21:20;14.15;;;2.60;;
28862;SDS011;15994;51.796;13.006;2023-11-19T13:23:47;14.60;;;3.20;;
28862;SDS011;15994;51.796;13.006;2023-11-19T13:26:15;13.95;;;3.20;;
28862;SDS011;15994;51.796;13.006;2023-11-19T13:28:42;19.40;;;3.65;;
28862;SDS011;15994;51.796;13.006;2023-11-19T13:31:09;16.17;;;3.00;;
28862;SDS011;15994;51.796;13.006;2023-11-19T13:33:36;15.48;;;3.38;;
28862;SDS011;15994;51.796;13.006;2023-11-19T13:36:03;12.88;;;2.47;;
28862;SDS011;15994;51.796;13.006;2023-11-19T13:38:32;16.58;;;3.45;;
28862;SDS011;15994;51.796;13.006;2023-11-19T13:41:00;14.38;;;3.03;;
28862;SDS011;15994;51.796;13.006;2023-11-19T13:43:27;16.60;;;3.17;;
28862;SDS011;15994;51.796;13.006;2023-11-19T13:45:54;12.50;;;2.83;;
28862;SDS011;15994;51.796;13.006;2023-11-19T13:48:23;11.43;;;2.25;;
28862;SDS011;15994;51.796;13.006;2023-11-19T13:50:51;21.40;;;3.83;;
28862;SDS011;15994;51.796;13.006;2023-11-19T13:53:18;14.70;;;3.40;;
28862;SDS011;15994;51.796;13.006;2023-11-19T13:55:45;14.70;;;3.00;;
28862;SDS011;15994;51.796;13.006;2023-11-19T13:58:13;11.00;;;3.17;;
28862;SDS011;15994;51.796;13.006;2023-11-19T14:00:40;16.58;;;3.47;;
28862;SDS011;15994;51.796;13.006;2023-11-19T14:03:08;15.55;;;3.00;;
28862;SDS011;15994;51.796;13.006;2023-11-19T14:05:36;13.65;;;3.05;;
28862;SDS011;15994;51.796;13.006;2023-11-19T14:08:03;11.27;;;2.47;;
28862;SDS011;15994;51.796;13.006;2023-11-19T14:10:36;18.33;;;2.95;;
28862;SDS011;15994;51.796;13.006;2023-11-19T14:13:04;16.42;;;2.85;;
28862;SDS011;15994;51.796;13.006;2023-11-19T14:15:31;16.30;;;3.05;;
28862;SDS011;15994;51.796;13.006;2023-11-19T14:17:58;14.55;;;2.95;;
28862;SDS011;15994;51.796;13.006;2023-11-19T14:20:25;14.35;;;3.40;;
28862;SDS011;15994;51.796;13.006;2023-11-19T14:22:52;16.63;;;3.28;;
28862;SDS011;15994;51.796;13.006;2023-11-19T14:25:19;14.10;;;2.97;;
28862;SDS011;15994;51.796;13.006;2023-11-19T14:27:48;18.80;;;3.22;;
28862;SDS011;15994;51.796;13.006;2023-11-19T14:30:15;15.13;;;3.17;;
28862;SDS011;15994;51.796;13.006;2023-11-19T14:32:43;12.73;;;2.90;;
28862;SDS011;15994;51.796;13.006;2023-11-19T14:35:11;17.67;;;3.00;;
28862;SDS011;15994;51.796;13.006;2023-11-19T14:37:38;11.20;;;2.75;;
28862;SDS011;15994;51.796;13.006;2023-11-19T14:40:05;16.35;;;3.33;;
28862;SDS011;15994;51.796;13.006;2023-11-19T14:42:36;12.98;;;2.95;;
28862;SDS011;15994;51.796;13.006;2023-11-19T14:45:04;14.07;;;3.50;;
28862;SDS011;15994;51.796;13.006;2023-11-19T14:47:31;14.80;;;3.55;;
28862;SDS011;15994;51.796;13.006;2023-11-19T14:49:58;20.98;;;3.15;;